PILOTS ONLINE: 361    ATC ONLINE: 52

Location

City Truckee
Country  United States
Latitude 39° 19' 12" N
Longitude 120° 8' 23" W
Elevation 5900 ft
Type Medium Airport

Weather

METAR
2014/07/14 01:15
KTRK 140115Z AUTO 27013G19KT 10SM CLR 30/05 A3025 RMK AO2
TAF
2014/07/13 18:21
TAF KTRK 131720Z 1318/1418 24006KT P6SM FEW180 
     FM132300 26010G17KT P6SM FEW090 
     FM140300 VRB04KT P6SM FEW150

Runways

01/19 4650 ft / 75 ft
10/28 7000 ft / 100 ft

Outbound flights

Inbound flights


Spotted incorrect airport information? Please login with your VATSIM ID.